createdAt,value
2022-12-01T00:00:52.026Z,6.8
2022-12-01T00:03:22.524Z,6.8
2022-12-01T00:05:52.549Z,6.7
2022-12-01T00:08:22.767Z,6.7
2022-12-01T00:10:53.217Z,6.8
2022-12-01T00:13:24.014Z,6.8
2022-12-01T00:15:55.284Z,6.8
2022-12-01T00:18:25.899Z,6.8
2022-12-01T00:20:57.123Z,6.7
2022-12-01T00:23:27.496Z,6.7
2022-12-01T00:25:58.480Z,6.6
2022-12-01T00:28:29.299Z,6.7
2022-12-01T00:31:00.614Z,6.7
2022-12-01T00:33:31.549Z,6.7
2022-12-01T00:36:02.040Z,6.6
2022-12-01T00:38:33.484Z,6.7
2022-12-01T00:41:04.329Z,6.7
2022-12-01T00:43:35.170Z,6.7
2022-12-01T00:46:05.858Z,6.6
2022-12-01T00:48:36.357Z,6.6
2022-12-01T00:51:07.490Z,6.7
2022-12-01T00:53:37.917Z,6.6
2022-12-01T00:56:08.287Z,6.6
2022-12-01T00:58:40.353Z,6.6
2022-12-01T01:01:10.735Z,6.6
2022-12-01T01:03:41.335Z,6.6
2022-12-01T01:06:12.237Z,6.4
2022-12-01T01:08:43.455Z,6.5
2022-12-01T01:11:13.919Z,6.6
2022-12-01T01:13:44.650Z,6.5
2022-12-01T01:16:15.427Z,6.6
2022-12-01T01:18:46.408Z,6.5
2022-12-01T01:21:17.792Z,6.6
2022-12-01T01:23:48.771Z,6.5
2022-12-01T01:26:19.413Z,6.5
2022-12-01T01:28:50.420Z,6.5
2022-12-01T01:31:21.707Z,6.6
2022-12-01T01:33:52.740Z,6.6
2022-12-01T01:36:23.502Z,6.6
2022-12-01T01:38:54.137Z,6.6
2022-12-01T01:41:24.628Z,6.6
2022-12-01T01:43:55.678Z,6.6
2022-12-01T01:46:26.626Z,6.6
2022-12-01T01:48:58.276Z,6.6
2022-12-01T01:51:28.930Z,6.4
2022-12-01T01:53:59.286Z,6.4
2022-12-01T01:56:31.273Z,6.4
2022-12-01T01:59:02.238Z,6.5
2022-12-01T02:01:32.461Z,6.4
2022-12-01T02:04:03.277Z,6.5
2022-12-01T02:06:33.835Z,6.4
2022-12-01T02:09:04.934Z,6.5
2022-12-01T02:11:35.799Z,6.5
2022-12-01T02:14:06.631Z,6.6
2022-12-01T02:16:38.214Z,6.4
2022-12-01T02:19:09.649Z,6.5
2022-12-01T02:21:40.386Z,6.3
2022-12-01T02:24:12.469Z,6.4
2022-12-01T02:26:43.264Z,6.4
2022-12-01T02:29:13.720Z,6.5
2022-12-01T02:31:45.371Z,6.5
2022-12-01T02:34:15.918Z,6.6
2022-12-01T02:36:47.165Z,6.5
2022-12-01T02:39:18.185Z,6.5
2022-12-01T02:41:49.523Z,6.5
2022-12-01T02:44:20.750Z,6.6
2022-12-01T02:46:52.147Z,6.4
2022-12-01T02:49:22.805Z,6.5
2022-12-01T02:51:53.478Z,6.5
2022-12-01T02:54:24.569Z,6.5
2022-12-01T02:56:55.614Z,6.4
2022-12-01T02:59:26.410Z,6.5
2022-12-01T03:01:57.345Z,6.6
2022-12-01T03:04:27.673Z,6.6
2022-12-01T03:06:59.349Z,6.5
2022-12-01T03:09:30.750Z,6.6
2022-12-01T03:12:01.156Z,6.7
2022-12-01T03:14:33.199Z,6.6
2022-12-01T03:17:04.130Z,6.7
2022-12-01T03:19:35.422Z,6.6
2022-12-01T03:22:05.825Z,6.5
2022-12-01T03:24:36.722Z,6.5
2022-12-01T03:27:07.863Z,6.5
2022-12-01T03:29:38.902Z,6.4
2022-12-01T03:32:08.348Z,6.6
2022-12-01T03:34:38.739Z,6.4
2022-12-01T03:37:10.432Z,6.5
2022-12-01T03:39:41.403Z,6.3
2022-12-01T03:42:12.709Z,6.3
2022-12-01T03:44:44.149Z,6.4
2022-12-01T03:47:14.655Z,6.4
2022-12-01T03:49:45.304Z,6.3
2022-12-01T03:52:16.264Z,6.4
2022-12-01T03:54:47.607Z,6.4
2022-12-01T03:57:18.536Z,6.4
2022-12-01T03:59:49.558Z,6.3
2022-12-01T04:02:20.872Z,6.3
2022-12-01T04:04:51.453Z,6.4
2022-12-01T04:07:22.421Z,6.4
2022-12-01T04:09:54.113Z,6.3
2022-12-01T04:12:25.045Z,6.3
2022-12-01T04:14:56.894Z,6.4
2022-12-01T04:17:27.670Z,6.4
2022-12-01T04:19:59.437Z,6.5
2022-12-01T04:22:30.374Z,6.4
2022-12-01T04:25:01.862Z,6.4
2022-12-01T04:27:33.388Z,6.6
2022-12-01T04:30:04.613Z,6.6
2022-12-01T04:32:35.111Z,6.5
2022-12-01T04:35:05.938Z,6.6
2022-12-01T04:37:37.819Z,6.5
2022-12-01T04:40:09.059Z,6.5
2022-12-01T04:42:40.882Z,6.5
2022-12-01T04:45:12.040Z,6.4
2022-12-01T04:47:43.873Z,6.4
2022-12-01T04:50:15.764Z,6.4
2022-12-01T04:52:46.722Z,6.4
2022-12-01T04:55:17.292Z,6.4
2022-12-01T04:57:48.836Z,6.4
2022-12-01T05:00:20.082Z,6.3
2022-12-01T05:02:51.641Z,6.2
2022-12-01T05:05:23.120Z,6.4
2022-12-01T05:07:54.348Z,6.3
2022-12-01T05:10:24.923Z,6.4
2022-12-01T05:12:56.327Z,6.4
2022-12-01T05:15:27.589Z,6.4
2022-12-01T05:17:58.584Z,6.3
2022-12-01T05:20:29.794Z,6.3
2022-12-01T05:23:05.591Z,6.3
2022-12-01T05:25:32.497Z,6.3
2022-12-01T05:28:03.645Z,6.2
2022-12-01T05:30:34.614Z,6.2
2022-12-01T05:33:05.690Z,6.2
2022-12-01T05:35:37.231Z,6.2
2022-12-01T05:38:08.638Z,6.2
2022-12-01T05:40:39.946Z,6.2
2022-12-01T05:43:10.873Z,6.3
2022-12-01T05:45:42.346Z,6.4
2022-12-01T05:48:13.541Z,6.4
2022-12-01T05:50:44.238Z,6.4
2022-12-01T05:53:15.470Z,6.4
2022-12-01T05:55:46.716Z,6.3
2022-12-01T05:58:17.693Z,6.2
2022-12-01T06:00:49.660Z,6.2
2022-12-01T06:03:20.895Z,6.3
2022-12-01T06:05:52.479Z,6.4
2022-12-01T06:08:23.789Z,6.4
2022-12-01T06:10:54.641Z,6.5
2022-12-01T06:13:25.466Z,6.4
2022-12-01T06:15:56.906Z,6.3
2022-12-01T06:18:28.400Z,6.3
2022-12-01T06:20:59.330Z,6.5
2022-12-01T06:23:30.648Z,6.5
2022-12-01T06:26:00.702Z,6.3
2022-12-01T06:28:35.143Z,6.4
2022-12-01T06:31:05.447Z,6.5
2022-12-01T06:33:36.574Z,6.5
2022-12-01T06:36:07.540Z,6.4
2022-12-01T06:38:41.599Z,6.3
2022-12-01T06:41:13.735Z,6.4
2022-12-01T06:43:44.493Z,6.4
2022-12-01T06:46:15.250Z,6.5
2022-12-01T06:48:45.908Z,6.6
2022-12-01T06:51:16.660Z,6.5
2022-12-01T06:53:47.225Z,6.7
2022-12-01T06:56:21.743Z,6.6
2022-12-01T06:58:52.277Z,6.7
2022-12-01T07:01:23.084Z,6.7
2022-12-01T07:03:53.513Z,6.7
2022-12-01T07:06:24.323Z,6.6
2022-12-01T07:08:55.130Z,6.5
2022-12-01T07:11:25.558Z,6.7
2022-12-01T07:13:59.818Z,6.8
2022-12-01T07:16:30.021Z,6.8
2022-12-01T07:19:00.807Z,6.8
2022-12-01T07:21:31.721Z,6.7
2022-12-01T07:24:01.769Z,6.7
2022-12-01T07:26:32.421Z,6.6
2022-12-01T07:29:03.473Z,6.7
2022-12-01T07:31:34.338Z,6.6
2022-12-01T07:34:05.523Z,6.6
2022-12-01T07:36:35.914Z,6.6
2022-12-01T07:39:06.669Z,6.6
2022-12-01T07:41:37.204Z,6.7
2022-12-01T07:44:07.898Z,6.6
2022-12-01T07:46:38.879Z,6.7
2022-12-01T07:49:09.127Z,6.9
2022-12-01T07:51:39.759Z,7
2022-12-01T07:54:10.403Z,6.9
2022-12-01T07:56:41.594Z,6.9
2022-12-01T07:59:13.439Z,6.9
2022-12-01T08:01:46.274Z,7
2022-12-01T08:04:17.205Z,6.9
2022-12-01T08:06:48.132Z,6.8
2022-12-01T08:09:18.798Z,6.8
2022-12-01T08:11:49.449Z,6.9
2022-12-01T08:14:20.032Z,6.9
2022-12-01T08:16:50.641Z,7.1
2022-12-01T08:19:22.178Z,7.2
2022-12-01T08:21:52.802Z,7.1
2022-12-01T08:24:21.693Z,7.1
2022-12-01T08:26:52.082Z,7.1
2022-12-01T08:29:22.090Z,7.2
2022-12-01T08:31:52.961Z,7.1
2022-12-01T08:34:23.889Z,7
2022-12-01T08:36:54.601Z,7.1
2022-12-01T08:39:25.418Z,7.1
2022-12-01T08:41:56.830Z,7.2
2022-12-01T08:44:28.373Z,7.2
2022-12-01T08:46:59.411Z,7.2
2022-12-01T08:49:30.616Z,7.3
2022-12-01T08:52:02.327Z,7.3
2022-12-01T08:54:33.432Z,7.2
2022-12-01T08:57:04.308Z,7.2
2022-12-01T08:59:36.386Z,7.3
2022-12-01T09:02:07.135Z,7.2
2022-12-01T09:04:37.939Z,7.4
2022-12-01T09:07:09.346Z,7.4
2022-12-01T09:09:40.729Z,7.6
2022-12-01T09:12:11.162Z,7.5
2022-12-01T09:14:42.321Z,7.4
2022-12-01T09:17:14.416Z,7.4
2022-12-01T09:19:45.326Z,7.3
2022-12-01T09:22:16.374Z,7.4
2022-12-01T09:24:47.527Z,7.5
2022-12-01T09:27:18.428Z,7.4
2022-12-01T09:29:50.033Z,7.4
2022-12-01T09:32:20.673Z,7.3
2022-12-01T09:34:51.406Z,7.4
2022-12-01T09:37:22.177Z,7.4
2022-12-01T09:39:52.939Z,7.4
2022-12-01T09:42:24.301Z,7.4
2022-12-01T09:44:56.277Z,7.3
2022-12-01T09:47:27.563Z,7.2
2022-12-01T09:49:58.812Z,7.3
2022-12-01T09:52:30.437Z,7.2
2022-12-01T09:55:01.662Z,7.2
2022-12-01T09:57:32.504Z,7.2
2022-12-01T10:00:04.971Z,7.3
2022-12-01T10:02:36.599Z,7.2
2022-12-01T10:05:08.293Z,7.3
2022-12-01T10:07:39.662Z,7.2
2022-12-01T10:10:11.328Z,7.2
2022-12-01T10:12:43.432Z,7.2
2022-12-01T10:15:14.670Z,7.2
2022-12-01T10:17:45.934Z,7.2
2022-12-01T10:20:17.425Z,7.3
2022-12-01T10:22:48.557Z,7
2022-12-01T10:25:20.859Z,7.1
2022-12-01T10:27:51.880Z,7.1
2022-12-01T10:30:23.947Z,6.9
2022-12-01T10:32:55.440Z,6.8
2022-12-01T10:35:26.861Z,6.7
2022-12-01T10:38:01.506Z,6.8
2022-12-01T10:40:32.944Z,6.6
2022-12-01T10:43:04.858Z,6.7
2022-12-01T10:45:35.926Z,6.8
2022-12-01T10:48:07.160Z,6.9
2022-12-01T10:50:41.013Z,7
2022-12-01T10:53:13.588Z,7.1
2022-12-01T10:55:48.027Z,7.1
2022-12-01T10:58:17.488Z,7.1
2022-12-01T11:00:59.391Z,7.2
2022-12-01T11:03:21.886Z,7.1
2022-12-01T11:05:50.121Z,6.9
2022-12-01T11:08:21.945Z,6.9
2022-12-01T11:10:52.971Z,6.8
2022-12-01T11:13:24.147Z,6.9
2022-12-01T11:15:55.907Z,6.9
2022-12-01T11:18:29.824Z,7.1
2022-12-01T11:21:01.058Z,7.1
2022-12-01T11:23:32.729Z,6.9
2022-12-01T11:26:03.715Z,7
2022-12-01T11:28:35.341Z,6.9
2022-12-01T11:31:06.365Z,7
2022-12-01T11:33:37.207Z,7
2022-12-01T11:36:11.776Z,7.1
2022-12-01T11:38:40.598Z,7
2022-12-01T11:41:11.801Z,7.1
2022-12-01T11:43:46.814Z,7
2022-12-01T11:46:14.549Z,7
2022-12-01T11:48:44.077Z,7.1
2022-12-01T11:51:15.366Z,7.2
2022-12-01T11:53:47.281Z,7.2
2022-12-01T11:56:18.179Z,7
2022-12-01T11:58:50.320Z,7
2022-12-01T12:01:22.377Z,7.1
2022-12-01T12:03:53.261Z,7.3
2022-12-01T12:06:39.746Z,7.3
2022-12-01T12:08:56.385Z,7.3
2022-12-01T12:11:27.009Z,7.3
2022-12-01T12:14:03.037Z,7.3
2022-12-01T12:16:34.687Z,7.3
2022-12-01T12:19:06.046Z,7.3
2022-12-01T12:21:37.063Z,7.1
2022-12-01T12:24:07.997Z,7.1
2022-12-01T12:26:38.623Z,6.9
2022-12-01T12:29:13.726Z,7
2022-12-01T12:31:40.788Z,7
2022-12-01T12:34:11.679Z,7
2022-12-01T12:36:42.055Z,6.9
2022-12-01T12:39:16.689Z,6.8
2022-12-01T12:41:45.819Z,6.9
2022-12-01T12:44:16.543Z,6.9
2022-12-01T12:46:47.011Z,6.9
2022-12-01T12:49:20.039Z,7
2022-12-01T12:51:49.550Z,7
2022-12-01T12:54:20.648Z,7.1
2022-12-01T12:56:51.147Z,7.1
2022-12-01T12:59:21.583Z,6.9
2022-12-01T13:01:52.854Z,7.1
2022-12-01T13:04:23.702Z,7
2022-12-01T13:06:54.928Z,7
2022-12-01T13:09:26.226Z,6.9
2022-12-01T13:11:57.299Z,6.8
2022-12-01T13:14:28.254Z,6.8
2022-12-01T13:16:59.338Z,6.9
2022-12-01T13:19:30.431Z,6.8
2022-12-01T13:22:02.462Z,6.9
2022-12-01T13:24:36.208Z,7
2022-12-01T13:27:07.736Z,7
2022-12-01T13:29:43.807Z,6.9
2022-12-01T13:32:10.901Z,6.9
2022-12-01T13:34:41.916Z,6.9
2022-12-01T13:37:13.553Z,6.9
2022-12-01T13:39:46.431Z,6.8
2022-12-01T13:42:17.278Z,6.8
2022-12-01T13:44:48.047Z,6.6
2022-12-01T13:47:19.278Z,6.6
2022-12-01T13:49:50.349Z,6.6
2022-12-01T13:52:21.161Z,6.6
2022-12-01T13:54:53.529Z,6.6
2022-12-01T13:57:24.771Z,6.5
2022-12-01T13:59:56.003Z,6.5
2022-12-01T14:02:27.667Z,6.7
2022-12-01T14:04:59.213Z,6.7
2022-12-01T14:07:30.580Z,6.8
2022-12-01T14:10:01.731Z,6.8
2022-12-01T14:12:33.619Z,6.8
2022-12-01T14:15:06.973Z,6.8
2022-12-01T14:17:38.429Z,6.6
2022-12-01T14:22:42.123Z,6.5
2022-12-01T14:25:14.681Z,6.5
2022-12-01T14:27:46.394Z,6.3
2022-12-01T14:30:17.699Z,6.4
2022-12-01T14:32:49.087Z,6.5
2022-12-01T14:35:20.251Z,6.6
2022-12-01T14:37:52.036Z,6.6
2022-12-01T14:40:23.386Z,6.6
2022-12-01T14:42:54.631Z,6.5
2022-12-01T14:45:25.877Z,6.6
2022-12-01T14:47:57.379Z,6.7
2022-12-01T14:50:29.665Z,6.7
2022-12-01T14:53:01.133Z,6.8
2022-12-01T14:55:31.456Z,6.8
2022-12-01T14:58:03.188Z,6.8
2022-12-01T15:00:34.770Z,6.7
2022-12-01T15:03:05.448Z,6.6
2022-12-01T15:05:37.341Z,6.7
2022-12-01T15:08:33.630Z,6.8
2022-12-01T15:10:40.312Z,6.6
2022-12-01T15:13:11.423Z,6.7
2022-12-01T15:15:43.463Z,6.7
2022-12-01T15:18:14.286Z,6.5
2022-12-01T15:20:47.851Z,6.2
2022-12-01T15:23:17.107Z,6.4
2022-12-01T15:25:48.538Z,6.5
2022-12-01T15:28:20.384Z,6.4
2022-12-01T15:30:50.437Z,6.3
2022-12-01T15:33:26.890Z,6.3
2022-12-01T15:35:53.935Z,6.3
2022-12-01T15:38:30.002Z,6.3
2022-12-01T15:41:27.739Z,6.4
2022-12-01T15:43:30.738Z,6.3
2022-12-01T15:46:01.664Z,6.3
2022-12-01T15:48:32.785Z,6.3
2022-12-01T15:51:04.528Z,6.4
2022-12-01T15:53:35.343Z,6.4
2022-12-01T15:56:07.453Z,6.4
2022-12-01T15:58:38.408Z,6.4
2022-12-01T16:01:10.873Z,6.4
2022-12-01T16:03:42.039Z,6.5
2022-12-01T16:06:13.308Z,6.4
2022-12-01T16:08:44.933Z,6.2
2022-12-01T16:11:16.552Z,6.2
2022-12-01T16:13:47.687Z,6.2
2022-12-01T16:16:20.126Z,6.2
2022-12-01T16:18:51.673Z,6.3
2022-12-01T16:21:23.122Z,6.3
2022-12-01T16:23:54.529Z,6.3
2022-12-01T16:26:25.385Z,6.3
2022-12-01T16:28:56.999Z,6.3
2022-12-01T16:31:28.471Z,6.3
2022-12-01T16:33:59.829Z,6.3
2022-12-01T16:36:30.522Z,6.3
2022-12-01T16:39:01.795Z,6.3
2022-12-01T16:41:37.787Z,6.4
2022-12-01T16:44:27.374Z,6.5
2022-12-01T16:46:35.578Z,6.6
2022-12-01T16:49:07.232Z,6.6
2022-12-01T16:51:54.608Z,6.5
2022-12-01T16:54:11.308Z,6.4
2022-12-01T16:56:42.665Z,6.5
2022-12-01T16:59:14.812Z,6.5
2022-12-01T17:01:46.929Z,6.5
2022-12-01T17:04:18.510Z,6.5
2022-12-01T17:06:50.716Z,6.4
2022-12-01T17:09:22.535Z,6.3
2022-12-01T17:11:53.819Z,6.3
2022-12-01T17:14:25.241Z,6.2
2022-12-01T17:16:57.727Z,6.1
2022-12-01T17:19:29.598Z,6.2
2022-12-01T17:22:00.977Z,6.2
2022-12-01T17:24:31.980Z,6.2
2022-12-01T17:27:04.906Z,6.3
2022-12-01T17:29:36.155Z,6.2
2022-12-01T17:32:07.871Z,6.1
2022-12-01T17:34:38.877Z,6.1
2022-12-01T17:37:20.612Z,6.1
2022-12-01T17:40:01.731Z,6.2
2022-12-01T17:42:33.133Z,5.9
2022-12-01T17:45:05.898Z,5.9
2022-12-01T17:47:36.318Z,5.8
2022-12-01T17:50:06.443Z,5.8
2022-12-01T17:52:38.535Z,5.9
2022-12-01T17:55:11.386Z,6
2022-12-01T17:57:43.631Z,6
2022-12-01T18:00:14.794Z,5.9
2022-12-01T18:02:46.939Z,5.9
2022-12-01T18:05:17.556Z,5.9
2022-12-01T18:07:49.470Z,6
2022-12-01T18:10:21.099Z,6
2022-12-01T18:12:52.429Z,6
2022-12-01T18:15:23.791Z,5.9
2022-12-01T18:17:55.565Z,6
2022-12-01T18:20:27.024Z,5.9
2022-12-01T18:23:00.183Z,5.9
2022-12-01T18:25:31.817Z,5.9
2022-12-01T18:28:04.070Z,5.7
2022-12-01T18:30:35.352Z,5.7
2022-12-01T18:33:07.307Z,5.7
2022-12-01T18:35:39.049Z,5.7
2022-12-01T18:38:11.079Z,5.7
2022-12-01T18:40:42.520Z,5.7
2022-12-01T18:43:14.251Z,5.7
2022-12-01T18:45:45.714Z,5.8
2022-12-01T18:48:17.638Z,5.9
2022-12-01T18:50:48.284Z,5.8
2022-12-01T18:53:17.467Z,5.9
2022-12-01T18:55:49.793Z,6
2022-12-01T18:58:22.283Z,6
2022-12-01T19:00:53.778Z,6
2022-12-01T19:03:24.965Z,6
2022-12-01T19:05:56.573Z,5.9
2022-12-01T19:08:27.691Z,5.8
2022-12-01T19:10:59.498Z,5.9
2022-12-01T19:13:29.345Z,6
2022-12-01T19:16:01.120Z,5.8
2022-12-01T19:18:32.578Z,5.8
2022-12-01T19:21:01.913Z,5.9
2022-12-01T19:23:33.794Z,5.8
2022-12-01T19:26:05.047Z,5.8
2022-12-01T19:28:36.826Z,5.8
2022-12-01T19:31:08.044Z,5.8
2022-12-01T19:33:39.469Z,5.9
2022-12-01T19:36:11.508Z,5.9
2022-12-01T19:38:43.530Z,5.8
2022-12-01T19:41:16.866Z,5.8
2022-12-01T19:43:48.126Z,5.8
2022-12-01T19:46:17.810Z,5.8
2022-12-01T19:48:49.449Z,5.8
2022-12-01T19:51:21.431Z,5.7
2022-12-01T19:53:53.161Z,5.7
2022-12-01T19:56:24.754Z,5.8
2022-12-01T19:58:56.274Z,5.8
2022-12-01T20:01:27.611Z,5.9
2022-12-01T20:03:59.513Z,5.7
2022-12-01T20:06:30.677Z,5.8
2022-12-01T20:09:02.196Z,5.7
2022-12-01T20:11:35.195Z,5.8
2022-12-01T20:14:06.836Z,5.7
2022-12-01T20:16:37.904Z,5.6
2022-12-01T20:19:10.390Z,5.7
2022-12-01T20:21:42.061Z,5.6
2022-12-01T20:24:14.102Z,5.7
2022-12-01T20:26:46.206Z,5.6
2022-12-01T20:29:17.531Z,5.8
2022-12-01T20:31:49.177Z,5.9
2022-12-01T20:34:20.667Z,5.9
2022-12-01T20:36:52.532Z,5.9
2022-12-01T20:39:24.126Z,5.9
2022-12-01T20:41:56.067Z,5.9
2022-12-01T20:44:27.518Z,5.8
2022-12-01T20:47:00.390Z,5.8
2022-12-01T20:49:34.592Z,5.9
2022-12-01T20:52:06.081Z,5.9
2022-12-01T20:54:37.952Z,5.9
2022-12-01T20:57:09.476Z,6
2022-12-01T20:59:42.239Z,5.9
2022-12-01T21:02:14.759Z,5.9
2022-12-01T21:04:46.361Z,5.8
2022-12-01T21:07:18.042Z,5.8
2022-12-01T21:09:54.252Z,5.8
2022-12-01T21:12:27.286Z,5.8
2022-12-01T21:14:59.227Z,6
2022-12-01T21:17:30.181Z,5.9
2022-12-01T21:20:01.406Z,5.8
2022-12-01T21:22:32.873Z,5.7
2022-12-01T21:25:05.298Z,5.7
2022-12-01T21:27:37.500Z,5.8
2022-12-01T21:30:09.407Z,5.9
2022-12-01T21:32:43.990Z,5.9
2022-12-01T21:35:12.963Z,5.8
2022-12-01T21:37:43.979Z,5.8
2022-12-01T21:40:15.359Z,5.8
2022-12-01T21:42:47.207Z,5.8
2022-12-01T21:45:18.532Z,5.9
2022-12-01T21:47:49.987Z,5.9
2022-12-01T21:50:23.433Z,5.8
2022-12-01T21:52:54.776Z,5.8
2022-12-01T21:55:26.258Z,5.8
2022-12-01T21:57:57.325Z,5.8
2022-12-01T22:00:29.262Z,5.8
2022-12-01T22:03:01.019Z,5.9
2022-12-01T22:05:32.363Z,5.9
2022-12-01T22:08:03.969Z,5.9
2022-12-01T22:10:35.849Z,6
2022-12-01T22:13:07.615Z,5.9
2022-12-01T22:15:39.223Z,5.8
2022-12-01T22:18:11.904Z,5.9
2022-12-01T22:20:43.936Z,5.9
2022-12-01T22:23:15.390Z,6
2022-12-01T22:25:46.923Z,6
2022-12-01T22:28:18.080Z,5.9
2022-12-01T22:30:49.675Z,6
2022-12-01T22:33:21.342Z,6.1
2022-12-01T22:35:52.709Z,6
2022-12-01T22:38:24.657Z,6.1
2022-12-01T22:40:56.326Z,6.2
2022-12-01T22:43:28.385Z,6.2
2022-12-01T22:45:59.844Z,6.2
2022-12-01T22:48:31.504Z,6.2
2022-12-01T22:51:02.802Z,6.2
2022-12-01T22:53:34.057Z,6.2
2022-12-01T22:56:05.711Z,6.1
2022-12-01T22:58:36.890Z,6.1
2022-12-01T23:01:08.309Z,6.1
2022-12-01T23:03:40.054Z,6.2
2022-12-01T23:06:11.102Z,6.2
2022-12-01T23:08:42.584Z,6.2
2022-12-01T23:11:14.184Z,6.2
2022-12-01T23:13:45.607Z,6.2
2022-12-01T23:16:16.403Z,6.2
2022-12-01T23:18:47.897Z,6.2
2022-12-01T23:21:19.067Z,6.1
2022-12-01T23:23:49.879Z,6.2
2022-12-01T23:26:21.045Z,6.2
2022-12-01T23:28:51.790Z,6.3
2022-12-01T23:31:22.438Z,6.2
2022-12-01T23:33:52.587Z,6.3
2022-12-01T23:36:23.351Z,6.3
2022-12-01T23:38:54.248Z,6.2
2022-12-01T23:41:25.778Z,6.1
2022-12-01T23:43:55.469Z,6.1
2022-12-01T23:46:25.607Z,6.1
2022-12-01T23:48:56.454Z,6.2
2022-12-01T23:51:27.544Z,6.2
2022-12-01T23:53:58.467Z,6.2
2022-12-01T23:56:29.264Z,6.1
2022-12-01T23:58:59.979Z,6.2
